sensor_id;sensor_type;location;lat;lon;timestamp;temperature;humidity
4759;DHT22;2393;50.560;12.636;2023-07-31T00:00:14;14.70;99.90
4759;DHT22;2393;50.560;12.636;2023-07-31T00:02:43;14.70;99.90
4759;DHT22;2393;50.560;12.636;2023-07-31T00:05:11;14.70;99.90
4759;DHT22;2393;50.560;12.636;2023-07-31T00:07:39;14.60;99.90
4759;DHT22;2393;50.560;12.636;2023-07-31T00:10:08;14.70;99.90
4759;DHT22;2393;50.560;12.636;2023-07-31T00:12:37;14.60;99.90
4759;DHT22;2393;50.560;12.636;2023-07-31T00:15:08;14.70;99.90
4759;DHT22;2393;50.560;12.636;2023-07-31T00:17:36;14.70;99.90
4759;DHT22;2393;50.560;12.636;2023-07-31T00:20:05;14.70;99.90
4759;DHT22;2393;50.560;12.636;2023-07-31T00:22:33;14.70;99.90
4759;DHT22;2393;50.560;12.636;2023-07-31T00:25:03;14.60;99.90
4759;DHT22;2393;50.560;12.636;2023-07-31T00:27:33;14.60;99.90
4759;DHT22;2393;50.560;12.636;2023-07-31T00:30:01;14.70;99.90
4759;DHT22;2393;50.560;12.636;2023-07-31T00:32:30;14.70;99.90
4759;DHT22;2393;50.560;12.636;2023-07-31T00:34:59;14.70;99.90
4759;DHT22;2393;50.560;12.636;2023-07-31T00:37:31;14.80;99.90
4759;DHT22;2393;50.560;12.636;2023-07-31T00:40:00;14.70;99.90
4759;DHT22;2393;50.560;12.636;2023-07-31T00:42:30;14.70;99.90
4759;DHT22;2393;50.560;12.636;2023-07-31T00:44:59;14.80;99.90
4759;DHT22;2393;50.560;12.636;2023-07-31T00:47:27;14.80;99.90
4759;DHT22;2393;50.560;12.636;2023-07-31T00:49:57;14.80;99.90
4759;DHT22;2393;50.560;12.636;2023-07-31T00:52:25;14.80;99.90
4759;DHT22;2393;50.560;12.636;2023-07-31T00:54:55;14.80;99.90
4759;DHT22;2393;50.560;12.636;2023-07-31T00:57:24;14.80;99.90
4759;DHT22;2393;50.560;12.636;2023-07-31T00:59:53;14.80;99.90
4759;DHT22;2393;50.560;12.636;2023-07-31T01:02:21;14.90;99.90
4759;DHT22;2393;50.560;12.636;2023-07-31T01:04:49;14.80;99.90
4759;DHT22;2393;50.560;12.636;2023-07-31T01:07:24;14.90;99.90
4759;DHT22;2393;50.560;12.636;2023-07-31T01:10:02;14.90;99.90
4759;DHT22;2393;50.560;12.636;2023-07-31T01:12:32;14.90;99.90
4759;DHT22;2393;50.560;12.636;2023-07-31T01:15:03;14.80;99.90
4759;DHT22;2393;50.560;12.636;2023-07-31T01:17:31;14.80;99.90
4759;DHT22;2393;50.560;12.636;2023-07-31T01:20:02;14.90;99.90
4759;DHT22;2393;50.560;12.636;2023-07-31T01:22:46;14.90;99.90
4759;DHT22;2393;50.560;12.636;2023-07-31T01:25:26;14.90;99.90
4759;DHT22;2393;50.560;12.636;2023-07-31T01:28:04;14.90;99.90
4759;DHT22;2393;50.560;12.636;2023-07-31T01:30:36;14.90;99.90
4759;DHT22;2393;50.560;12.636;2023-07-31T01:33:06;14.90;99.90
4759;DHT22;2393;50.560;12.636;2023-07-31T01:35:36;14.90;99.90
4759;DHT22;2393;50.560;12.636;2023-07-31T01:38:05;14.90;99.90
4759;DHT22;2393;50.560;12.636;2023-07-31T01:40:33;14.90;99.90
4759;DHT22;2393;50.560;12.636;2023-07-31T01:43:03;14.90;99.90
4759;DHT22;2393;50.560;12.636;2023-07-31T01:45:31;14.90;99.90
4759;DHT22;2393;50.560;12.636;2023-07-31T01:47:59;15.00;99.90
4759;DHT22;2393;50.560;12.636;2023-07-31T01:50:27;15.00;99.90
4759;DHT22;2393;50.560;12.636;2023-07-31T01:52:55;15.00;99.90
4759;DHT22;2393;50.560;12.636;2023-07-31T01:55:25;15.00;99.90
4759;DHT22;2393;50.560;12.636;2023-07-31T01:57:53;15.00;99.90
4759;DHT22;2393;50.560;12.636;2023-07-31T02:00:22;15.00;99.90
4759;DHT22;2393;50.560;12.636;2023-07-31T02:02:50;15.00;99.90
4759;DHT22;2393;50.560;12.636;2023-07-31T02:05:19;15.00;99.90
4759;DHT22;2393;50.560;12.636;2023-07-31T02:07:47;15.00;99.90
4759;DHT22;2393;50.560;12.636;2023-07-31T02:10:15;15.00;99.90
4759;DHT22;2393;50.560;12.636;2023-07-31T02:12:43;14.90;99.90
4759;DHT22;2393;50.560;12.636;2023-07-31T02:15:11;14.80;99.90
4759;DHT22;2393;50.560;12.636;2023-07-31T02:17:41;14.80;99.90
4759;DHT22;2393;50.560;12.636;2023-07-31T02:20:10;14.70;99.90
4759;DHT22;2393;50.560;12.636;2023-07-31T02:22:38;14.70;99.90
4759;DHT22;2393;50.560;12.636;2023-07-31T02:25:07;14.70;99.90
4759;DHT22;2393;50.560;12.636;2023-07-31T02:27:35;14.70;99.90
4759;DHT22;2393;50.560;12.636;2023-07-31T02:30:03;14.60;99.90
4759;DHT22;2393;50.560;12.636;2023-07-31T02:32:31;14.60;99.90
4759;DHT22;2393;50.560;12.636;2023-07-31T02:35:01;14.60;99.90
4759;DHT22;2393;50.560;12.636;2023-07-31T02:37:29;14.60;99.90
4759;DHT22;2393;50.560;12.636;2023-07-31T02:39:57;14.60;99.90
4759;DHT22;2393;50.560;12.636;2023-07-31T02:42:27;14.50;99.90
4759;DHT22;2393;50.560;12.636;2023-07-31T02:44:55;14.40;99.90
4759;DHT22;2393;50.560;12.636;2023-07-31T02:47:23;14.30;99.90
4759;DHT22;2393;50.560;12.636;2023-07-31T02:49:52;14.30;99.90
4759;DHT22;2393;50.560;12.636;2023-07-31T02:52:22;14.30;99.90
4759;DHT22;2393;50.560;12.636;2023-07-31T02:54:50;14.20;99.90
4759;DHT22;2393;50.560;12.636;2023-07-31T02:57:18;14.10;99.90
4759;DHT22;2393;50.560;12.636;2023-07-31T02:59:46;14.10;99.90
4759;DHT22;2393;50.560;12.636;2023-07-31T03:02:14;14.10;99.90
4759;DHT22;2393;50.560;12.636;2023-07-31T03:04:42;14.10;99.90
4759;DHT22;2393;50.560;12.636;2023-07-31T03:07:10;14.00;99.90
4759;DHT22;2393;50.560;12.636;2023-07-31T03:09:40;14.00;99.90
4759;DHT22;2393;50.560;12.636;2023-07-31T03:12:08;14.00;99.90
4759;DHT22;2393;50.560;12.636;2023-07-31T03:14:37;14.00;99.90
4759;DHT22;2393;50.560;12.636;2023-07-31T03:17:05;14.10;99.90
4759;DHT22;2393;50.560;12.636;2023-07-31T03:19:33;14.00;99.90
4759;DHT22;2393;50.560;12.636;2023-07-31T03:22:01;14.10;99.90
4759;DHT22;2393;50.560;12.636;2023-07-31T03:24:30;14.10;99.90
4759;DHT22;2393;50.560;12.636;2023-07-31T03:26:59;14.10;99.90
4759;DHT22;2393;50.560;12.636;2023-07-31T03:29:27;14.10;99.90
4759;DHT22;2393;50.560;12.636;2023-07-31T03:31:55;14.10;99.90
4759;DHT22;2393;50.560;12.636;2023-07-31T03:34:23;14.10;99.90
4759;DHT22;2393;50.560;12.636;2023-07-31T03:36:51;14.10;99.90
4759;DHT22;2393;50.560;12.636;2023-07-31T03:39:20;14.00;99.90
4759;DHT22;2393;50.560;12.636;2023-07-31T03:41:50;14.00;99.90
4759;DHT22;2393;50.560;12.636;2023-07-31T03:44:19;14.00;99.90
4759;DHT22;2393;50.560;12.636;2023-07-31T03:46:47;14.00;99.90
4759;DHT22;2393;50.560;12.636;2023-07-31T03:49:15;14.00;99.90
4759;DHT22;2393;50.560;12.636;2023-07-31T03:51:43;14.10;99.90
4759;DHT22;2393;50.560;12.636;2023-07-31T03:54:12;14.10;99.90
4759;DHT22;2393;50.560;12.636;2023-07-31T03:56:41;14.00;99.90
4759;DHT22;2393;50.560;12.636;2023-07-31T03:59:10;14.10;99.90
4759;DHT22;2393;50.560;12.636;2023-07-31T04:01:39;14.10;99.90
4759;DHT22;2393;50.560;12.636;2023-07-31T04:04:07;14.10;99.90
4759;DHT22;2393;50.560;12.636;2023-07-31T04:06:35;14.10;99.90
4759;DHT22;2393;50.560;12.636;2023-07-31T04:09:04;14.10;99.90
4759;DHT22;2393;50.560;12.636;2023-07-31T04:11:32;14.10;99.90
4759;DHT22;2393;50.560;12.636;2023-07-31T04:14:00;14.10;99.90
4759;DHT22;2393;50.560;12.636;2023-07-31T04:16:28;14.10;99.90
4759;DHT22;2393;50.560;12.636;2023-07-31T04:18:57;14.10;99.90
4759;DHT22;2393;50.560;12.636;2023-07-31T04:21:25;14.10;99.90
4759;DHT22;2393;50.560;12.636;2023-07-31T04:23:53;14.10;99.90
4759;DHT22;2393;50.560;12.636;2023-07-31T04:26:22;14.20;99.90
4759;DHT22;2393;50.560;12.636;2023-07-31T04:28:51;14.10;99.90
4759;DHT22;2393;50.560;12.636;2023-07-31T04:31:19;14.20;99.90
4759;DHT22;2393;50.560;12.636;2023-07-31T04:33:48;14.20;99.90
4759;DHT22;2393;50.560;12.636;2023-07-31T04:36:17;14.30;99.90
4759;DHT22;2393;50.560;12.636;2023-07-31T04:38:45;14.30;99.90
4759;DHT22;2393;50.560;12.636;2023-07-31T04:41:13;14.30;99.90
4759;DHT22;2393;50.560;12.636;2023-07-31T04:43:41;14.30;99.90
4759;DHT22;2393;50.560;12.636;2023-07-31T04:46:10;14.30;99.90
4759;DHT22;2393;50.560;12.636;2023-07-31T04:48:38;14.30;99.90
4759;DHT22;2393;50.560;12.636;2023-07-31T04:51:06;14.30;99.90
4759;DHT22;2393;50.560;12.636;2023-07-31T04:53:35;14.30;99.90
4759;DHT22;2393;50.560;12.636;2023-07-31T04:56:03;14.30;99.90
4759;DHT22;2393;50.560;12.636;2023-07-31T04:58:31;14.30;99.90
4759;DHT22;2393;50.560;12.636;2023-07-31T05:01:00;14.40;99.90
4759;DHT22;2393;50.560;12.636;2023-07-31T05:03:28;14.40;99.90
4759;DHT22;2393;50.560;12.636;2023-07-31T05:05:56;14.40;99.90
4759;DHT22;2393;50.560;12.636;2023-07-31T05:08:24;14.40;99.90
4759;DHT22;2393;50.560;12.636;2023-07-31T05:10:53;14.50;99.90
4759;DHT22;2393;50.560;12.636;2023-07-31T05:13:22;14.50;99.90
4759;DHT22;2393;50.560;12.636;2023-07-31T05:15:50;14.50;99.90
4759;DHT22;2393;50.560;12.636;2023-07-31T05:18:18;14.50;99.90
4759;DHT22;2393;50.560;12.636;2023-07-31T05:20:46;14.60;99.90
4759;DHT22;2393;50.560;12.636;2023-07-31T05:23:14;14.60;99.90
4759;DHT22;2393;50.560;12.636;2023-07-31T05:25:42;14.70;99.90
4759;DHT22;2393;50.560;12.636;2023-07-31T05:28:12;14.70;99.90
4759;DHT22;2393;50.560;12.636;2023-07-31T05:30:40;14.70;99.90
4759;DHT22;2393;50.560;12.636;2023-07-31T05:33:08;14.70;99.90
4759;DHT22;2393;50.560;12.636;2023-07-31T05:35:39;14.70;99.90
4759;DHT22;2393;50.560;12.636;2023-07-31T05:38:07;14.80;99.90
4759;DHT22;2393;50.560;12.636;2023-07-31T05:40:35;14.80;99.90
4759;DHT22;2393;50.560;12.636;2023-07-31T05:43:03;14.80;99.90
4759;DHT22;2393;50.560;12.636;2023-07-31T05:45:34;14.80;99.90
4759;DHT22;2393;50.560;12.636;2023-07-31T05:48:04;14.80;99.90
4759;DHT22;2393;50.560;12.636;2023-07-31T05:50:33;14.80;99.90
4759;DHT22;2393;50.560;12.636;2023-07-31T05:53:01;14.80;99.90
4759;DHT22;2393;50.560;12.636;2023-07-31T05:55:29;14.80;99.90
4759;DHT22;2393;50.560;12.636;2023-07-31T05:57:57;14.90;99.90
4759;DHT22;2393;50.560;12.636;2023-07-31T06:00:27;14.80;99.90
4759;DHT22;2393;50.560;12.636;2023-07-31T06:02:57;14.80;99.90
4759;DHT22;2393;50.560;12.636;2023-07-31T06:05:25;14.90;99.90
4759;DHT22;2393;50.560;12.636;2023-07-31T06:07:55;14.90;99.90
4759;DHT22;2393;50.560;12.636;2023-07-31T06:10:23;14.90;99.90
4759;DHT22;2393;50.560;12.636;2023-07-31T06:12:51;14.90;99.90
4759;DHT22;2393;50.560;12.636;2023-07-31T06:15:20;14.90;99.90
4759;DHT22;2393;50.560;12.636;2023-07-31T06:17:48;14.90;99.90
4759;DHT22;2393;50.560;12.636;2023-07-31T06:20:18;15.00;99.90
4759;DHT22;2393;50.560;12.636;2023-07-31T06:22:46;15.00;99.90
4759;DHT22;2393;50.560;12.636;2023-07-31T06:25:14;15.00;99.90
4759;DHT22;2393;50.560;12.636;2023-07-31T06:27:42;15.00;99.90
4759;DHT22;2393;50.560;12.636;2023-07-31T06:30:11;15.00;99.90
4759;DHT22;2393;50.560;12.636;2023-07-31T06:32:39;15.00;99.90
4759;DHT22;2393;50.560;12.636;2023-07-31T06:35:08;15.10;99.90
4759;DHT22;2393;50.560;12.636;2023-07-31T06:37:37;15.10;99.90
4759;DHT22;2393;50.560;12.636;2023-07-31T06:40:09;15.10;99.90
4759;DHT22;2393;50.560;12.636;2023-07-31T06:42:38;15.10;99.90
4759;DHT22;2393;50.560;12.636;2023-07-31T06:45:07;15.10;99.90
4759;DHT22;2393;50.560;12.636;2023-07-31T06:47:35;15.20;99.90
4759;DHT22;2393;50.560;12.636;2023-07-31T06:50:04;15.20;99.90
4759;DHT22;2393;50.560;12.636;2023-07-31T06:52:32;15.30;99.90
4759;DHT22;2393;50.560;12.636;2023-07-31T06:55:03;15.40;99.90
4759;DHT22;2393;50.560;12.636;2023-07-31T06:57:31;15.40;99.90
4759;DHT22;2393;50.560;12.636;2023-07-31T06:59:59;15.50;99.90
4759;DHT22;2393;50.560;12.636;2023-07-31T07:02:28;15.50;99.90
4759;DHT22;2393;50.560;12.636;2023-07-31T07:04:56;15.50;99.90
4759;DHT22;2393;50.560;12.636;2023-07-31T07:07:24;15.50;99.90
4759;DHT22;2393;50.560;12.636;2023-07-31T07:09:53;15.60;99.90
4759;DHT22;2393;50.560;12.636;2023-07-31T07:12:22;15.70;99.90
4759;DHT22;2393;50.560;12.636;2023-07-31T07:14:50;15.70;99.90
4759;DHT22;2393;50.560;12.636;2023-07-31T07:17:19;15.70;99.90
4759;DHT22;2393;50.560;12.636;2023-07-31T07:19:48;15.70;99.90
4759;DHT22;2393;50.560;12.636;2023-07-31T07:22:16;15.80;99.90
4759;DHT22;2393;50.560;12.636;2023-07-31T07:24:44;15.80;99.90
4759;DHT22;2393;50.560;12.636;2023-07-31T07:27:12;15.80;99.90
4759;DHT22;2393;50.560;12.636;2023-07-31T07:29:41;15.80;99.90
4759;DHT22;2393;50.560;12.636;2023-07-31T07:32:09;15.80;99.90
4759;DHT22;2393;50.560;12.636;2023-07-31T07:34:39;15.90;99.90
4759;DHT22;2393;50.560;12.636;2023-07-31T07:37:07;15.90;99.90
4759;DHT22;2393;50.560;12.636;2023-07-31T07:39:35;16.00;99.90
4759;DHT22;2393;50.560;12.636;2023-07-31T07:42:03;16.10;99.90
4759;DHT22;2393;50.560;12.636;2023-07-31T07:44:32;16.20;99.90
4759;DHT22;2393;50.560;12.636;2023-07-31T07:47:01;16.20;99.90
4759;DHT22;2393;50.560;12.636;2023-07-31T07:49:29;16.30;99.90
4759;DHT22;2393;50.560;12.636;2023-07-31T07:51:57;16.30;99.90
4759;DHT22;2393;50.560;12.636;2023-07-31T07:54:25;16.40;99.90
4759;DHT22;2393;50.560;12.636;2023-07-31T07:56:53;16.50;99.90
4759;DHT22;2393;50.560;12.636;2023-07-31T07:59:22;16.70;99.90
4759;DHT22;2393;50.560;12.636;2023-07-31T08:01:50;16.80;99.90
4759;DHT22;2393;50.560;12.636;2023-07-31T08:04:19;16.90;99.90
4759;DHT22;2393;50.560;12.636;2023-07-31T08:06:47;16.90;99.90
4759;DHT22;2393;50.560;12.636;2023-07-31T08:09:15;16.90;99.90
4759;DHT22;2393;50.560;12.636;2023-07-31T08:11:43;17.00;99.90
4759;DHT22;2393;50.560;12.636;2023-07-31T08:14:11;17.00;99.90
4759;DHT22;2393;50.560;12.636;2023-07-31T08:16:39;17.10;99.90
4759;DHT22;2393;50.560;12.636;2023-07-31T08:19:08;17.20;99.90
4759;DHT22;2393;50.560;12.636;2023-07-31T08:21:38;17.20;99.90
4759;DHT22;2393;50.560;12.636;2023-07-31T08:24:06;17.30;99.90
4759;DHT22;2393;50.560;12.636;2023-07-31T08:26:35;17.30;99.90
4759;DHT22;2393;50.560;12.636;2023-07-31T08:29:03;17.40;99.90
4759;DHT22;2393;50.560;12.636;2023-07-31T08:31:32;17.40;99.90
4759;DHT22;2393;50.560;12.636;2023-07-31T08:34:00;17.40;99.90
4759;DHT22;2393;50.560;12.636;2023-07-31T08:36:29;17.40;99.90
4759;DHT22;2393;50.560;12.636;2023-07-31T08:38:59;17.40;99.90
4759;DHT22;2393;50.560;12.636;2023-07-31T08:41:27;17.30;99.90
4759;DHT22;2393;50.560;12.636;2023-07-31T08:43:56;17.40;99.90
4759;DHT22;2393;50.560;12.636;2023-07-31T08:46:25;17.40;99.90
4759;DHT22;2393;50.560;12.636;2023-07-31T08:48:55;17.40;99.90
4759;DHT22;2393;50.560;12.636;2023-07-31T08:51:25;17.40;99.90
4759;DHT22;2393;50.560;12.636;2023-07-31T08:53:53;17.40;99.90
4759;DHT22;2393;50.560;12.636;2023-07-31T08:56:23;17.40;99.90
4759;DHT22;2393;50.560;12.636;2023-07-31T08:58:53;17.50;99.90
4759;DHT22;2393;50.560;12.636;2023-07-31T09:01:23;17.50;99.90
4759;DHT22;2393;50.560;12.636;2023-07-31T09:03:52;17.50;99.90
4759;DHT22;2393;50.560;12.636;2023-07-31T09:06:23;17.50;99.90
4759;DHT22;2393;50.560;12.636;2023-07-31T09:08:53;17.60;99.90
4759;DHT22;2393;50.560;12.636;2023-07-31T09:11:22;17.70;99.90
4759;DHT22;2393;50.560;12.636;2023-07-31T09:13:52;17.90;99.90
4759;DHT22;2393;50.560;12.636;2023-07-31T09:16:27;18.00;99.90
4759;DHT22;2393;50.560;12.636;2023-07-31T09:18:57;18.10;99.90
4759;DHT22;2393;50.560;12.636;2023-07-31T09:21:28;18.30;99.90
4759;DHT22;2393;50.560;12.636;2023-07-31T09:23:57;18.30;99.90
4759;DHT22;2393;50.560;12.636;2023-07-31T09:26:31;18.40;99.90
4759;DHT22;2393;50.560;12.636;2023-07-31T09:29:01;18.50;99.90
4759;DHT22;2393;50.560;12.636;2023-07-31T09:31:39;18.60;99.90
4759;DHT22;2393;50.560;12.636;2023-07-31T09:34:08;18.70;99.90
4759;DHT22;2393;50.560;12.636;2023-07-31T09:36:42;18.90;99.90
4759;DHT22;2393;50.560;12.636;2023-07-31T09:39:11;19.10;99.90
4759;DHT22;2393;50.560;12.636;2023-07-31T09:41:46;19.30;99.90
4759;DHT22;2393;50.560;12.636;2023-07-31T09:44:14;19.50;99.90
4759;DHT22;2393;50.560;12.636;2023-07-31T09:46:42;19.70;99.90
4759;DHT22;2393;50.560;12.636;2023-07-31T09:49:14;19.80;99.90
4759;DHT22;2393;50.560;12.636;2023-07-31T09:51:42;20.10;99.90
4759;DHT22;2393;50.560;12.636;2023-07-31T09:54:11;20.10;99.90
4759;DHT22;2393;50.560;12.636;2023-07-31T09:56:43;20.10;99.90
4759;DHT22;2393;50.560;12.636;2023-07-31T09:59:14;19.90;99.90
4759;DHT22;2393;50.560;12.636;2023-07-31T10:01:43;20.00;99.90
4759;DHT22;2393;50.560;12.636;2023-07-31T10:04:13;20.10;99.90
4759;DHT22;2393;50.560;12.636;2023-07-31T10:06:44;20.10;99.90
4759;DHT22;2393;50.560;12.636;2023-07-31T10:09:15;20.20;99.90
4759;DHT22;2393;50.560;12.636;2023-07-31T10:11:48;20.30;99.90
4759;DHT22;2393;50.560;12.636;2023-07-31T10:14:20;20.30;99.90
4759;DHT22;2393;50.560;12.636;2023-07-31T10:16:49;20.20;99.90
4759;DHT22;2393;50.560;12.636;2023-07-31T10:19:18;20.20;99.90
4759;DHT22;2393;50.560;12.636;2023-07-31T10:21:48;20.10;99.90
4759;DHT22;2393;50.560;12.636;2023-07-31T10:24:17;20.00;99.90
4759;DHT22;2393;50.560;12.636;2023-07-31T10:26:47;19.90;99.90
4759;DHT22;2393;50.560;12.636;2023-07-31T10:29:16;19.60;99.90
4759;DHT22;2393;50.560;12.636;2023-07-31T10:31:45;19.50;99.90
4759;DHT22;2393;50.560;12.636;2023-07-31T10:34:14;19.40;99.90
4759;DHT22;2393;50.560;12.636;2023-07-31T10:36:43;19.30;99.90
4759;DHT22;2393;50.560;12.636;2023-07-31T10:39:35;19.40;99.90
4759;DHT22;2393;50.560;12.636;2023-07-31T10:42:12;19.40;99.90
4759;DHT22;2393;50.560;12.636;2023-07-31T10:44:44;19.50;99.90
4759;DHT22;2393;50.560;12.636;2023-07-31T10:47:14;19.60;99.90
4759;DHT22;2393;50.560;12.636;2023-07-31T10:49:45;19.60;99.90
4759;DHT22;2393;50.560;12.636;2023-07-31T10:52:13;19.50;99.90
4759;DHT22;2393;50.560;12.636;2023-07-31T10:54:41;19.60;99.90
4759;DHT22;2393;50.560;12.636;2023-07-31T10:57:20;19.80;99.90
4759;DHT22;2393;50.560;12.636;2023-07-31T10:59:49;20.00;99.90
4759;DHT22;2393;50.560;12.636;2023-07-31T11:02:24;20.20;99.90
4759;DHT22;2393;50.560;12.636;2023-07-31T11:05:15;20.30;99.90
4759;DHT22;2393;50.560;12.636;2023-07-31T11:07:47;20.50;99.90
4759;DHT22;2393;50.560;12.636;2023-07-31T11:10:18;20.80;99.90
4759;DHT22;2393;50.560;12.636;2023-07-31T11:12:49;21.00;99.90
4759;DHT22;2393;50.560;12.636;2023-07-31T11:15:17;21.20;99.90
4759;DHT22;2393;50.560;12.636;2023-07-31T11:17:45;21.20;99.90
4759;DHT22;2393;50.560;12.636;2023-07-31T11:20:13;21.20;99.90
4759;DHT22;2393;50.560;12.636;2023-07-31T11:22:41;21.30;99.90
4759;DHT22;2393;50.560;12.636;2023-07-31T11:25:09;21.30;99.90
4759;DHT22;2393;50.560;12.636;2023-07-31T11:27:39;21.20;99.90
4759;DHT22;2393;50.560;12.636;2023-07-31T11:30:11;21.10;99.90
4759;DHT22;2393;50.560;12.636;2023-07-31T11:32:40;21.30;99.90
4759;DHT22;2393;50.560;12.636;2023-07-31T11:35:12;21.30;99.90
4759;DHT22;2393;50.560;12.636;2023-07-31T11:37:40;21.40;99.90
4759;DHT22;2393;50.560;12.636;2023-07-31T11:40:10;21.50;99.90
4759;DHT22;2393;50.560;12.636;2023-07-31T11:42:38;21.60;99.90
4759;DHT22;2393;50.560;12.636;2023-07-31T11:45:08;21.80;99.90
4759;DHT22;2393;50.560;12.636;2023-07-31T11:47:38;21.90;99.90
4759;DHT22;2393;50.560;12.636;2023-07-31T11:50:11;22.10;99.90
4759;DHT22;2393;50.560;12.636;2023-07-31T11:52:42;22.20;99.90
4759;DHT22;2393;50.560;12.636;2023-07-31T11:55:12;22.10;99.90
4759;DHT22;2393;50.560;12.636;2023-07-31T11:57:43;22.30;99.90
4759;DHT22;2393;50.560;12.636;2023-07-31T12:00:13;22.30;99.90
4759;DHT22;2393;50.560;12.636;2023-07-31T12:02:43;22.40;99.90
4759;DHT22;2393;50.560;12.636;2023-07-31T12:05:12;22.20;99.90
4759;DHT22;2393;50.560;12.636;2023-07-31T12:07:45;22.20;99.90
4759;DHT22;2393;50.560;12.636;2023-07-31T12:10:27;22.00;99.90
4759;DHT22;2393;50.560;12.636;2023-07-31T12:13:00;21.90;99.90
4759;DHT22;2393;50.560;12.636;2023-07-31T12:15:36;21.70;99.90
4759;DHT22;2393;50.560;12.636;2023-07-31T12:18:08;21.60;99.90
4759;DHT22;2393;50.560;12.636;2023-07-31T12:20:41;21.50;99.90
4759;DHT22;2393;50.560;12.636;2023-07-31T12:23:14;21.50;99.90
4759;DHT22;2393;50.560;12.636;2023-07-31T12:25:42;21.40;99.90
4759;DHT22;2393;50.560;12.636;2023-07-31T12:28:12;21.40;99.90
4759;DHT22;2393;50.560;12.636;2023-07-31T12:30:41;21.30;99.90
4759;DHT22;2393;50.560;12.636;2023-07-31T12:33:14;21.10;99.90
4759;DHT22;2393;50.560;12.636;2023-07-31T12:35:45;21.00;99.90
4759;DHT22;2393;50.560;12.636;2023-07-31T12:38:13;21.10;99.90
4759;DHT22;2393;50.560;12.636;2023-07-31T12:40:42;21.20;99.90
4759;DHT22;2393;50.560;12.636;2023-07-31T12:43:10;21.20;99.90
4759;DHT22;2393;50.560;12.636;2023-07-31T12:45:39;21.20;99.90
4759;DHT22;2393;50.560;12.636;2023-07-31T12:48:07;21.30;99.90
4759;DHT22;2393;50.560;12.636;2023-07-31T12:50:37;21.30;99.90
4759;DHT22;2393;50.560;12.636;2023-07-31T12:53:07;21.20;99.90
4759;DHT22;2393;50.560;12.636;2023-07-31T12:55:36;21.00;99.90
4759;DHT22;2393;50.560;12.636;2023-07-31T12:58:04;21.00;99.90
4759;DHT22;2393;50.560;12.636;2023-07-31T13:00:32;20.90;99.90
4759;DHT22;2393;50.560;12.636;2023-07-31T13:03:01;20.90;99.90
4759;DHT22;2393;50.560;12.636;2023-07-31T13:05:29;20.90;99.90
4759;DHT22;2393;50.560;12.636;2023-07-31T13:07:59;20.90;99.90
4759;DHT22;2393;50.560;12.636;2023-07-31T13:10:28;20.90;99.90
4759;DHT22;2393;50.560;12.636;2023-07-31T13:12:57;20.90;99.90
4759;DHT22;2393;50.560;12.636;2023-07-31T13:15:25;20.90;99.90
4759;DHT22;2393;50.560;12.636;2023-07-31T13:17:53;20.70;99.90
4759;DHT22;2393;50.560;12.636;2023-07-31T13:20:22;20.70;99.90
4759;DHT22;2393;50.560;12.636;2023-07-31T13:22:50;20.70;99.90
4759;DHT22;2393;50.560;12.636;2023-07-31T13:25:20;20.70;99.90
4759;DHT22;2393;50.560;12.636;2023-07-31T13:27:48;20.60;99.90
4759;DHT22;2393;50.560;12.636;2023-07-31T13:30:17;20.60;99.90
4759;DHT22;2393;50.560;12.636;2023-07-31T13:32:45;20.80;99.90
4759;DHT22;2393;50.560;12.636;2023-07-31T13:35:13;20.90;99.90
4759;DHT22;2393;50.560;12.636;2023-07-31T13:37:41;21.00;99.90
4759;DHT22;2393;50.560;12.636;2023-07-31T13:40:10;21.10;99.90
4759;DHT22;2393;50.560;12.636;2023-07-31T13:42:39;21.10;99.90
4759;DHT22;2393;50.560;12.636;2023-07-31T13:45:08;21.00;99.90
4759;DHT22;2393;50.560;12.636;2023-07-31T13:47:36;21.00;99.90
4759;DHT22;2393;50.560;12.636;2023-07-31T13:50:05;21.00;99.90
4759;DHT22;2393;50.560;12.636;2023-07-31T13:52:33;21.00;99.90
4759;DHT22;2393;50.560;12.636;2023-07-31T13:55:01;21.00;99.90
4759;DHT22;2393;50.560;12.636;2023-07-31T13:57:29;20.90;99.90
4759;DHT22;2393;50.560;12.636;2023-07-31T13:59:59;20.80;99.90
4759;DHT22;2393;50.560;12.636;2023-07-31T14:02:30;20.90;99.90
4759;DHT22;2393;50.560;12.636;2023-07-31T14:04:58;20.90;99.90
4759;DHT22;2393;50.560;12.636;2023-07-31T14:07:26;21.20;99.90
4759;DHT22;2393;50.560;12.636;2023-07-31T14:09:55;21.50;99.90
4759;DHT22;2393;50.560;12.636;2023-07-31T14:12:23;21.80;99.90
4759;DHT22;2393;50.560;12.636;2023-07-31T14:14:59;21.90;99.90
4759;DHT22;2393;50.560;12.636;2023-07-31T14:17:27;22.00;99.90
4759;DHT22;2393;50.560;12.636;2023-07-31T14:19:55;22.00;99.90
4759;DHT22;2393;50.560;12.636;2023-07-31T14:22:30;22.00;99.90
4759;DHT22;2393;50.560;12.636;2023-07-31T14:25:00;22.00;99.90
4759;DHT22;2393;50.560;12.636;2023-07-31T14:27:28;21.90;99.90
4759;DHT22;2393;50.560;12.636;2023-07-31T14:29:56;21.50;99.90
4759;DHT22;2393;50.560;12.636;2023-07-31T14:32:26;21.40;99.90
4759;DHT22;2393;50.560;12.636;2023-07-31T14:34:54;21.30;99.90
4759;DHT22;2393;50.560;12.636;2023-07-31T14:37:22;21.30;99.90
4759;DHT22;2393;50.560;12.636;2023-07-31T14:39:50;21.30;99.90
4759;DHT22;2393;50.560;12.636;2023-07-31T14:42:18;21.20;99.90
4759;DHT22;2393;50.560;12.636;2023-07-31T14:44:46;21.10;99.90
4759;DHT22;2393;50.560;12.636;2023-07-31T14:47:15;21.00;99.90
4759;DHT22;2393;50.560;12.636;2023-07-31T14:49:44;20.90;99.90
4759;DHT22;2393;50.560;12.636;2023-07-31T14:52:12;20.90;99.90
4759;DHT22;2393;50.560;12.636;2023-07-31T14:54:40;20.80;99.90
4759;DHT22;2393;50.560;12.636;2023-07-31T14:57:09;20.80;99.90
4759;DHT22;2393;50.560;12.636;2023-07-31T14:59:37;20.70;99.90
4759;DHT22;2393;50.560;12.636;2023-07-31T15:02:05;20.60;99.90
4759;DHT22;2393;50.560;12.636;2023-07-31T15:04:34;20.60;99.90
4759;DHT22;2393;50.560;12.636;2023-07-31T15:07:04;20.60;99.90
4759;DHT22;2393;50.560;12.636;2023-07-31T15:09:32;20.50;99.90
4759;DHT22;2393;50.560;12.636;2023-07-31T15:12:01;20.50;99.90
4759;DHT22;2393;50.560;12.636;2023-07-31T15:14:29;20.50;99.90
4759;DHT22;2393;50.560;12.636;2023-07-31T15:16:58;20.50;99.90
4759;DHT22;2393;50.560;12.636;2023-07-31T15:19:26;20.40;99.90
4759;DHT22;2393;50.560;12.636;2023-07-31T15:21:56;20.30;99.90
4759;DHT22;2393;50.560;12.636;2023-07-31T15:24:25;20.30;99.90
4759;DHT22;2393;50.560;12.636;2023-07-31T15:26:54;20.30;99.90
4759;DHT22;2393;50.560;12.636;2023-07-31T15:29:22;20.40;99.90
4759;DHT22;2393;50.560;12.636;2023-07-31T15:31:50;20.40;99.90
4759;DHT22;2393;50.560;12.636;2023-07-31T15:34:19;20.40;99.90
4759;DHT22;2393;50.560;12.636;2023-07-31T15:36:47;20.50;99.90
4759;DHT22;2393;50.560;12.636;2023-07-31T15:39:15;20.50;99.90
4759;DHT22;2393;50.560;12.636;2023-07-31T15:41:45;20.60;99.90
4759;DHT22;2393;50.560;12.636;2023-07-31T15:44:13;20.60;99.90
4759;DHT22;2393;50.560;12.636;2023-07-31T15:46:41;20.80;99.90
4759;DHT22;2393;50.560;12.636;2023-07-31T15:49:10;20.90;99.90
4759;DHT22;2393;50.560;12.636;2023-07-31T15:51:38;20.90;99.90
4759;DHT22;2393;50.560;12.636;2023-07-31T15:54:06;21.00;99.90
4759;DHT22;2393;50.560;12.636;2023-07-31T15:56:34;21.00;99.90